createdAt,value
2018-03-08T21:02:49.888Z,78.90
2018-03-08T21:05:21.349Z,78.40
2018-03-08T21:07:51.973Z,78.30
2018-03-08T21:13:25.426Z,78.80
2018-03-08T21:15:56.890Z,77.80
2018-03-08T21:18:27.856Z,77.80
2018-03-08T21:20:58.961Z,78.30
2018-03-08T21:23:30.811Z,78.30
2018-03-08T21:26:02.850Z,77.60
2018-03-08T21:28:34.516Z,77.50
2018-03-08T21:31:10.247Z,77.00
2018-03-08T21:33:46.020Z,77.00
2018-03-08T21:36:23.289Z,76.20
2018-03-08T21:38:53.851Z,76.10
2018-03-08T21:41:29.335Z,76.20
2018-03-08T21:44:05.189Z,75.50
2018-03-08T21:46:36.373Z,75.00
2018-03-08T21:49:11.693Z,74.30
2018-03-08T21:51:48.028Z,74.10
2018-03-08T21:54:24.954Z,73.30
2018-03-08T21:56:56.217Z,72.70
2018-03-08T21:59:32.126Z,72.00
2018-03-08T22:02:07.787Z,72.30
2018-03-08T22:04:43.416Z,72.20
2018-03-08T22:07:18.635Z,72.60
2018-03-08T22:09:52.910Z,72.70
2018-03-08T22:12:28.219Z,71.70
2018-03-08T22:14:59.495Z,71.40
2018-03-08T22:17:34.826Z,71.50
2018-03-08T22:20:11.754Z,72.10
2018-03-08T22:22:47.443Z,72.10
2018-03-08T22:25:23.293Z,72.40
2018-03-08T22:27:59.575Z,72.80
2018-03-08T22:30:31.784Z,72.80
2018-03-08T22:33:02.976Z,73.00
2018-03-08T22:35:38.853Z,72.90
2018-03-08T22:38:09.323Z,73.00
2018-03-08T22:40:45.079Z,72.80
2018-03-08T22:43:20.897Z,72.90
2018-03-08T22:45:52.151Z,73.50
2018-03-08T22:51:20.762Z,73.90
2018-03-08T22:53:52.797Z,75.10
2018-03-08T22:56:29.443Z,82.60
2018-03-08T22:59:06.231Z,86.70
2018-03-08T23:02:09.581Z,91.00
2018-03-08T23:04:40.477Z,92.30
2018-03-08T23:07:16.351Z,95.10
2018-03-08T23:09:47.557Z,96.30
2018-03-08T23:12:23.798Z,97.50
2018-03-08T23:14:59.371Z,97.50
2018-03-08T23:17:35.378Z,97.50
2018-03-08T23:20:10.613Z,98.00
2018-03-08T23:22:46.947Z,97.80
2018-03-08T23:25:23.606Z,97.50
2018-03-08T23:28:00.121Z,97.50
2018-03-08T23:30:32.393Z,97.70
2018-03-08T23:33:08.169Z,98.00
2018-03-08T23:35:44.274Z,97.10
2018-03-08T23:38:15.545Z,97.10
2018-03-08T23:40:46.463Z,95.80
2018-03-08T23:43:22.282Z,95.50
2018-03-08T23:45:54.255Z,95.50
2018-03-08T23:48:30.721Z,95.80
2018-03-08T23:51:06.048Z,95.80
2018-03-08T23:53:41.685Z,96.40
2018-03-08T23:56:19.292Z,97.00
2018-03-08T23:58:55.860Z,97.20
